Andri Sulaeman

Scout - Persija
3 Dez 2028
Sonntag
Verarbeitung

Persönlichkeit

Anpassungsfähigkeit (15) Ehrgeiz (13) Kontroverse (19) Loyalität (18) Druck (11) Professionalität (12) Fairness (5) Temperament (17)

Profil

Trainerstil Demokratisch
Lizenz Kontinentale B
Entschlossenheit 3
Menschenführung 6
Motivation 7
Disziplin 6
Arbeitszufriedenheit
100%
Ermüdung
0%
Rolle Scout
Gehalt 34.7K p/W
Vertrag 14.03.2029

Leistung

Verhalten Gut
Trainingseffektivität
34%
Spielerentwicklung
15%
Verletzungsprävention
55%
Taktische Umsetzung
50%

Letzte Ereignisse

Spieler begutachtet jetzt
Spieler begutachtet jetzt
Nahm an einer Scouting-Besprechung teil jetzt
Spieler begutachtet jetzt
Spieler begutachtet jetzt
Spieler begutachtet jetzt
Spieler begutachtet jetzt
Spieler begutachtet 7T her

Aktuell beobachtet

638
Spieler Verein Status Fähigkeit Vertrauen Beobachtet Zuletzt beobachtet Letzte Stimme
Yuber Quiñónes Patriotas Aktiv 123 / 109 40% 4 02.12.2028 -
Franco Ibarra Rosario Central Aktiv 128 / 122 40% 3 02.12.2028 -
Bruno Leyes Godoy Cruz Aktiv 135 / 138 40% 4 02.12.2028 -
Gastón Togni Defensa y Justicia Aktiv 133 / 130 40% 4 02.12.2028 -
Lautaro Vargas Unión de Santa Fe Aktiv 122 / 136 40% 2 02.12.2028 -
Lucas Carrizo Newell's Old Boys Aktiv 128 / 117 40% 1 02.12.2028 -
Václav Sejk Slovacko Aktiv 118 / 128 40% 7 01.12.2028 -
Jan Mlakar Lumezzane Aktiv 125 / 120 40% 2 01.12.2028 -
Yair González Argentinos Juniors Aktiv 119 / 115 40% 1 01.12.2028 -
Gabriel Souza Vasco da Gama Aktiv 120 / 131 40% 2 30.11.2028 -
Jordan Amissah Burton Albion Aktiv 116 / 123 40% 3 30.11.2028 -
Heinz Mörschel Espanyol Aktiv 125 / 138 40% 7 30.11.2028 -
Rumarn Burrell Borussia Mönchengladbach Aktiv 130 / 130 40% 2 30.11.2028 -
Mouhamadou Sarr Modena Aktiv 131 / 128 40% 1 30.11.2028 -
Hamidullo Abdunabiyev AGMK Aktiv 113 / 108 40% 1 30.11.2028 -
Emil Riis Leicester City Aktiv 123 / 130 40% 4 29.11.2028 -
Miloš Pantović Panathinaikos Aktiv 130 / 118 40% 10 27.11.2028 -
Malcom Braida Boca Juniors Aktiv 128 / 127 40% 4 27.11.2028 -
Facundo Bruera San Lorenzo Aktiv 118 / 135 40% 4 27.11.2028 -
Niall Ennis Blackpool Aktiv 117 / 119 40% 2 27.11.2028 -
Tomáš Nemčík Rosenborg Aktiv 128 / 130 40% 1 27.11.2028 -
Massimo Zilli Spezia Aktiv 128 / 119 40% 6 26.11.2028 -
Alejo Dramisino Atlanta Aktiv 126 / 129 40% 3 26.11.2028 -
Cedric Teuchert Borussia Mönchengladbach Aktiv 126 / 137 40% 6 26.11.2028 -
Ole Romeny Oxford United Aktiv 128 / 118 40% 1 26.11.2028 -
Kevin Medina Mirandés Aktiv 139 / 140 40% 1 26.11.2028 -
Lewis Bate Stockport County Aktiv 139 / 133 40% 1 26.11.2028 -
Abduvohid Ne'matov Nasaf Aktiv 127 / 128 40% 2 25.11.2028 -
Alexei Rojas Fedorushchenko Barrow AFC Aktiv 125 / 139 40% 2 25.11.2028 -
Uriel Antuna Dinamo Moscow Aktiv 139 / 130 40% 8 25.11.2028 -
Nicholas Bonfanti Pisa Aktiv 125 / 127 40% 1 25.11.2028 -
Žiga Frelih NK Celje Aktiv 123 / 116 40% 1 25.11.2028 -
Alejo Tabares All Boys Aktiv 120 / 124 40% 3 24.11.2028 -
Orazio Messina Torino Aktiv 147 / 146 40% 2 23.11.2028 -
Emre Ünüvar Ajax Aktiv 128 / 124 40% 1 23.11.2028 -
Moses Cobnan Krasnodar Aktiv 118 / 114 40% 7 22.11.2028 -
Stefano Moreyra Independiente Rivadavia Aktiv 127 / 122 40% 4 22.11.2028 -
Ignacio Abraham Banfield Aktiv 119 / 131 40% 4 22.11.2028 -
Lautaro Godoy Atlético Tucumán Aktiv 117 / 128 40% 2 22.11.2028 -
Roland Galčík Rio Ave Aktiv 118 / 120 40% 5 21.11.2028 -
Clemente Montes Santiago Wanderers Aktiv 117 / 114 40% 15 21.11.2028 -
Thiago Santamaría Argentinos Juniors Aktiv 116 / 118 40% 1 21.11.2028 -
Maximiliano Romero San Lorenzo Aktiv 121 / 113 40% 7 20.11.2028 -
Sasha Marcich Lanús Aktiv 130 / 117 40% 3 20.11.2028 -
Soma Anzai FC Tokyo Aktiv 115 / 127 40% 2 20.11.2028 -
Egas Cacintura Akhmat Grozny Aktiv 120 / 123 40% 2 20.11.2028 -
Eric Meza Hajduk Split Aktiv 121 / 134 40% 1 20.11.2028 -
Nicolás Hernández Atletico Nacional Aktiv 117 / 116 40% 1 19.11.2028 -
Santiago Kubiszyn Morón Aktiv 120 / 106 40% 1 19.11.2028 -
Tomás Ferreyra Defensores Unidos Aktiv 107 / 115 40% 1 19.11.2028 -
Sergio Barlocco Trento Aktiv 130 / 133 40% 2 18.11.2028 -
Balázs Tóth Blackburn Rovers Aktiv 142 / 137 40% 2 18.11.2028 -
Davis Keillor-Dunn Bolton Wanderers Aktiv 131 / 125 40% 3 18.11.2028 -
Kewin Komar ND Gorica Aktiv 121 / 123 40% 1 18.11.2028 -
Rodrigo Insúa Racing Club Aktiv 123 / 122 40% 2 17.11.2028 -
Luis Palacios Once Caldas Aktiv 115 / 120 40% 8 17.11.2028 -
Gonzalo Ríos Independiente Rivadavia Aktiv 122 / 129 40% 3 17.11.2028 -
Juan Manuel Gutiérrez Defensa y Justicia Aktiv 121 / 123 40% 4 16.11.2028 -
Francisco González Metilli Belgrano Aktiv 130 / 125 40% 6 16.11.2028 -
Sam Smith Wrexham Aktiv 122 / 133 40% 3 16.11.2028 -
Nicolás Barros Schelotto Gimnasia La Plata Aktiv 120 / 134 40% 2 16.11.2028 -
Agustín Hausch Defensa y Justicia Aktiv 123 / 127 40% 11 15.11.2028 -
Dylan Moody Cheltenham Town Aktiv 130 / 127 40% 2 15.11.2028 -
Julián Palacios Envigado Aktiv 127 / 122 40% 4 15.11.2028 -
Hernán de la Fuente Instituto Aktiv 115 / 126 40% 3 15.11.2028 -
Oliver Burke Union Berlin Aktiv 125 / 139 40% 2 15.11.2028 -
Tete Morente Elche Aktiv 136 / 134 40% 1 15.11.2028 -
Maico Quiroz Güemes Aktiv 112 / 122 40% 1 15.11.2028 -
Rodrigo Herrera Newell's Old Boys Aktiv 132 / 119 40% 1 15.11.2028 -
Facundo Altamirano San Lorenzo Aktiv 126 / 119 40% 1 15.11.2028 -
Enrico Gallo Chamois Niortais Aktiv 139 / 141 40% 1 15.11.2028 -
Fernando Bersano Madryn Aktiv 120 / 119 40% 8 12.11.2028 -
John Córdoba Millonarios Aktiv 124 / 113 40% 5 12.11.2028 -
Francisco Valencia Junior Aktiv 134 / 122 40% 4 12.11.2028 -
Frank Tsadjout Padova Aktiv 128 / 123 40% 1 12.11.2028 -
Diyor Xolmatov Navbahor Aktiv 118 / 116 40% 1 12.11.2028 -
Edoardo Soleri Bari Aktiv 134 / 116 40% 4 11.11.2028 -
Santiago Sosa Yung Defensa y Justicia Aktiv 125 / 131 40% 2 11.11.2028 -
Gustavo Santos Krasnodar Aktiv 127 / 119 40% 5 11.11.2028 -
Sandro Kulenović Palermo Aktiv 131 / 128 40% 3 11.11.2028 -
Nicolás Retamar Ferro Carril Oeste Aktiv 115 / 108 40% 3 10.11.2028 -
Sam Lammers PSV Aktiv 128 / 121 40% 5 10.11.2028 -
Matías Giménez Rojas Argentinos Juniors Aktiv 126 / 124 40% 5 10.11.2028 -
Killian Cahill Leyton Orient Aktiv 116 / 129 40% 3 09.11.2028 -
Iván Chaves Patronato Aktiv 104 / 105 40% 2 09.11.2028 -
Jokin Ezkieta Racing Santander Aktiv 142 / 140 40% 1 09.11.2028 -
Marco Tumminello Benevento Aktiv 118 / 121 40% 1 08.11.2028 -
Thiago Cardozo Unión de Santa Fe Aktiv 120 / 114 40% 3 07.11.2028 -
Darío Orebro Aktiv 118 / 113 40% 1 07.11.2028 -
Gonzalo Requena Instituto Aktiv 128 / 117 40% 3 06.11.2028 -
Alexis Maldonado Belgrano Aktiv 120 / 116 40% 2 06.11.2028 -
Kevin Ortiz Rosario Central Aktiv 125 / 124 40% 1 06.11.2028 -
Iñaki Larthirigoyen San Telmo Aktiv 120 / 133 40% 4 05.11.2028 -
Ruslanbek Jiyanov Navbahor Aktiv 123 / 113 40% 6 05.11.2028 -
Juan Pintado Gimnasia La Plata Aktiv 131 / 115 40% 2 05.11.2028 -
Tobías Cervera Gimnasia y Esgrima Aktiv 129 / 115 40% 3 04.11.2028 -
Maximiliano Salas River Plate Aktiv 135 / 119 40% 8 04.11.2028 -
Elías López Aldosivi Aktiv 121 / 127 40% 4 04.11.2028 -
Lautaro Díaz Cruzeiro Aktiv 132 / 125 40% 4 04.11.2028 -
Roberto Ramírez Godoy Cruz Aktiv 120 / 113 40% 4 03.11.2028 -
Martín Fernández Newell's Old Boys Aktiv 122 / 129 40% 2 03.11.2028 -
Alejandro Cantero Jomo Cosmos Aktiv 115 / 137 40% 4 03.11.2028 -
Luciano Jachfe Nueva Chicago Aktiv 125 / 131 40% 3 03.11.2028 -
Manuel Mónaco Sarmiento Aktiv 118 / 126 40% 1 03.11.2028 -
Franco González Penarol Aktiv 124 / 123 40% 1 03.11.2028 -
Santiago Longo Belgrano Aktiv 122 / 118 40% 3 30.10.2028 -
Mateo Coronel Atlético Tucumán Aktiv 129 / 128 40% 1 30.10.2028 -
Mariano Bracamonte Deportivo Riestra Aktiv 116 / 114 40% 1 30.10.2028 -
Jefry Zapata Aldosivi Aktiv 121 / 111 40% 1 30.10.2028 -
Blas Armoa Gimnasia y Esgrima Aktiv 125 / 120 40% 6 29.10.2028 -
Santiago Cáseres Lanús Aktiv 133 / 136 40% 1 29.10.2028 -
Dmitry Vorobjov Spartak Moscow Aktiv 129 / 132 40% 2 27.10.2028 -
Yota Komi Kashiwa Reysol Aktiv 112 / 124 40% 4 26.10.2028 -
Jorge Cabezas Hurtado Watford Aktiv 122 / 128 40% 1 26.10.2028 -
Enzo Roldán Unión de Santa Fe Aktiv 129 / 120 40% 1 26.10.2028 -
Rick Talleres Aktiv 122 / 128 40% 2 25.10.2028 -
Federico Bonazzoli Pisa Aktiv 145 / 145 40% 5 24.10.2028 -
Mateo Antoni Argentinos Juniors Aktiv 119 / 131 40% 3 23.10.2028 -
Lucas Souto Defensa y Justicia Aktiv 135 / 134 40% 2 23.10.2028 -
Ismael Cortez Gimnasia y Esgrima Aktiv 128 / 113 40% 1 23.10.2028 -
Ludovico Del Sorbo Sorrento Aktiv 122 / 123 40% 2 22.10.2028 -
Damián Fernández Defensa y Justicia Aktiv 126 / 136 40% 3 22.10.2028 -
Leonardo Candellone Virtus Entella Aktiv 123 / 129 40% 4 22.10.2028 -
Vicente Pizarro Rosario Central Aktiv 126 / 132 40% 1 22.10.2028 -
Álvaro Aceves Valladolid Aktiv 121 / 116 40% 1 22.10.2028 -
Fabian Cuadrado Valledupar Aktiv 105 / 109 40% 1 22.10.2028 -
Federico Bisanz Atlanta Aktiv 110 / 121 40% 3 19.10.2028 -
Adrián Sánchez Belgrano Aktiv 131 / 130 40% 3 19.10.2028 -
Alan Barrionuevo Tigre Aktiv 126 / 106 40% 1 19.10.2028 -
Yusuke Matsuo Ipswich Town Aktiv 125 / 128 40% 1 18.10.2028 -
David Min NEC Aktiv 121 / 121 40% 1 15.10.2028 -
Lautaro Ríos Banfield Aktiv 112 / 125 40% 1 15.10.2028 -
Franco Díaz Temperley Aktiv 116 / 124 40% 3 14.10.2028 -
Valerio Crespi Avellino Aktiv 125 / 130 40% 2 13.10.2028 -
Arthur Augusto Semen Padang Aktiv 113 / 119 40% 2 12.10.2028 -
Robert Cook Accrington Stanley Aktiv 108 / 120 40% 3 12.10.2028 -
Carlos Marín Albacete Aktiv 131 / 136 40% 2 12.10.2028 -
Emanuele Pecorino Catanzaro Aktiv 114 / 112 40% 2 10.10.2028 -
Samy Merheg Alverca Aktiv 115 / 123 40% 1 10.10.2028 -
Federico Navarro Rosario Central Aktiv 126 / 132 40% 1 10.10.2028 -
Fabricio Corbalán Gimnasia La Plata Aktiv 119 / 124 40% 1 10.10.2028 -
Santiago Esquivel Banfield Aktiv 117 / 127 40% 1 10.10.2028 -
Juan Velázquez Belgrano Aktiv 116 / 126 40% 6 09.10.2028 -
Matías Mansilla Estudiantes Aktiv 116 / 134 40% 2 09.10.2028 -
Brian Aguirre Boca Juniors Aktiv 123 / 135 40% 2 09.10.2028 -
Emanuel Coronel Rosario Central Aktiv 122 / 125 40% 2 09.10.2028 -
Koffi Kouao Neftchi Aktiv 128 / 131 40% 2 08.10.2028 -
Gabriel Díaz Sarmiento Aktiv 119 / 127 40% 1 08.10.2028 -
Paulo Vitor Dinamo Batumi Aktiv 124 / 108 40% 1 08.10.2028 -
Jerónimo Domina Cádiz Aktiv 118 / 119 40% 1 08.10.2028 -
Denzel Jubitana Neftchi Aktiv 115 / 134 40% 5 07.10.2028 -
Vanja Vlahović Spezia Aktiv 128 / 134 40% 2 07.10.2028 -
Artem Dovbyk Hellas Verona Aktiv 141 / 144 40% 1 07.10.2028 -
Simone Mazzocchi Cosenza Aktiv 130 / 134 40% 5 05.10.2028 -
Dailon Livramento Hellas Verona Aktiv 117 / 117 40% 4 04.10.2028 -
Luca Moro Padova Aktiv 128 / 132 40% 2 04.10.2028 -
Luka Čumić PSM Aktiv 106 / 106 30% 1 / 1m 04.10.2028 -
Camilo Alessandria Godoy Cruz Aktiv 121 / 111 40% 2 03.10.2028 -
Ignacio Ramírez Newell's Old Boys Aktiv 127 / 127 40% 8 02.10.2028 -
Agustín Sant'Anna Bragantino Aktiv 124 / 130 40% 1 02.10.2028 -
Mikhail Ignatov Sochi Aktiv 113 / 111 40% 7 01.10.2028 -
Facundo Farías Estudiantes Aktiv 122 / 138 40% 6 01.10.2028 -
Ramiro Hernandes Belgrano Aktiv 131 / 126 40% 3 30.09.2028 -
Franco Minerva Platense Aktiv 123 / 131 40% 1 30.09.2028 -
Facundo Lencioni Gimnasia y Esgrima Aktiv 123 / 115 40% 1 29.09.2028 -
Gastón Verón Argentinos Juniors Aktiv 132 / 132 40% 5 28.09.2028 -
Emiliano González Almagro Aktiv 129 / 117 40% 2 28.09.2028 -
Ángel Maciel Tacuarembo Aktiv 113 / 115 40% 1 28.09.2028 -
Juan Yangali San Telmo Aktiv 109 / 120 40% 1 27.09.2028 -
Alan Morinigo Olimpia Aktiv 126 / 127 40% 1 27.09.2028 -
Juan Pablo Insúa Barracas Central Aktiv 117 / 106 40% 2 26.09.2028 -
Davit Kereselidze Dila Aktiv 111 / 119 40% 2 26.09.2028 -
Dani Figueira Ararat-Armenia Aktiv 112 / 128 40% 1 26.09.2028 -
Tomás Porra Barracas Central Aktiv 113 / 113 40% 4 25.09.2028 -
Fabio Abiuso Carrarese Aktiv 121 / 135 40% 4 24.09.2028 -
Akmal Mozgovoy Pakhtakor Aktiv 127 / 120 40% 1 24.09.2028 -
Kyle Wootton Stockport County Aktiv 118 / 128 40% 4 23.09.2028 -
Luis Ingolotti Atlético Tucumán Aktiv 138 / 126 40% 3 23.09.2028 -
Esteban Glellel Quilmes Aktiv 126 / 123 40% 1 23.09.2028 -
Nicolás Sumavil Platense Aktiv 124 / 128 40% 2 22.09.2028 -
Sebastián Díaz Robles Boca Juniors Aktiv 126 / 111 40% 1 22.09.2028 -
John Victor Manchester United Aktiv 146 / 132 40% 1 22.09.2028 -
Facundo Sanguinetti Banfield Aktiv 123 / 126 40% 3 21.09.2028 -
Aynsley Pears Blackburn Rovers Aktiv 133 / 127 40% 1 21.09.2028 -
Mateo Seoane Gimnasia La Plata Aktiv 118 / 119 40% 1 21.09.2028 -
Ezequiel Herrera San Lorenzo Aktiv 115 / 130 40% 2 20.09.2028 -
Santiago Moyano Central Córdoba SdE Aktiv 116 / 125 40% 1 20.09.2028 -
Rodrigo Bogarín Barracas Central Aktiv 119 / 117 40% 3 19.09.2028 -
Facundo Mater Barracas Central Aktiv 127 / 120 40% 2 19.09.2028 -
Rüstəm Əhmədzadə Sumgayit Aktiv 126 / 123 40% 1 18.09.2028 -
Gabriel Taliari Cruzeiro Aktiv 113 / 131 40% 1 18.09.2028 -
Samuel Brolin Kalmar FF Aktiv 138 / 129 40% 1 17.09.2028 -
Nahuel Manganelli San Martín Aktiv 122 / 109 40% 1 17.09.2028 -
Jasper Torkildsen IK Start Aktiv 125 / 103 40% 1 16.09.2028 -
Lautaro Morales Lanús Aktiv 141 / 124 40% 1 16.09.2028 -
Mauro Méndez Tigre Aktiv 112 / 123 40% 2 13.09.2028 -
Tomás Bottari Independiente Rivadavia Aktiv 114 / 113 40% 1 13.09.2028 -
Santiago Quiros Racing Club Aktiv 131 / 121 40% 1 13.09.2028 -
Diego Sosa Instituto Aktiv 120 / 128 40% 1 11.09.2028 -
Alcides Benítez Belgrano Aktiv 119 / 114 40% 7 10.09.2028 -
Joel Pereira Reading Aktiv 115 / 114 40% 3 10.09.2028 -
Juan Pablo Ludueña Unión de Santa Fe Aktiv 127 / 121 40% 1 10.09.2028 -
Bekkhan Shaizada Ordabasy Aktiv 114 / 108 40% 1 10.09.2028 -
Yeferson Rodallega Envigado Aktiv 117 / 106 40% 5 08.09.2028 -
Álvaro Busso Vélez Aktiv 118 / 128 40% 2 08.09.2028 -
Matías Tagliamonte Racing Club Aktiv 122 / 127 40% 1 08.09.2028 -
Mathias Pereira Lage RB Leipzig Aktiv 140 / 139 40% 1 08.09.2028 -
Lucas Palavecino Banfield Aktiv 126 / 119 40% 1 08.09.2028 -
Tomás Nasif River Plate Aktiv 112 / 110 40% 1 05.09.2028 -
Matías Pellegrini Vélez Aktiv 114 / 114 40% 2 03.09.2028 -
Facundo Rodríguez Estudiantes Aktiv 119 / 131 40% 1 03.09.2028 -
Brayan Gil Baltika Aktiv 132 / 115 40% 2 02.09.2028 -
Mauro Valiente Estudiantes Aktiv 111 / 126 40% 2 01.09.2028 -
Christian Walton Ipswich Town Aktiv 131 / 137 40% 1 01.09.2028 -
Oufa Shobeir MC Alger Aktiv 128 / 134 40% 1 01.09.2028 -
Aaron Collins Milton Keynes Dons Aktiv 123 / 134 40% 1 01.09.2028 -
Sherzod Nasrullayev Pakhtakor Aktiv 125 / 113 40% 1 01.09.2028 -
Bryan Reyna Belgrano Aktiv 127 / 134 40% 1 01.09.2028 -
Fran Vieites Walsall Aktiv 124 / 128 40% 2 29.08.2028 -
Sudi Abdallah Persijap Abgelehnt 95 / 88 72% 1 28.08.2028 Ablehnen
Pedro Silva Torrejón Gimnasia La Plata Aktiv 114 / 121 40% 1 28.08.2028 -
Alex Vigo Independiente Rivadavia Aktiv 125 / 124 40% 1 27.08.2028 -
Gastón Benedetti Estudiantes Aktiv 122 / 134 40% 1 27.08.2028 -
Walter Mazzantti Independiente Aktiv 134 / 130 40% 4 26.08.2028 -
Eliano Reijnders Persib Aktiv 112 / 118 40% 4 26.08.2028 -
Jérémy Le Douaron Palermo Aktiv 123 / 119 40% 2 26.08.2028 -
Matías Machado Racing Aktiv 112 / 117 40% 1 26.08.2028 -
Mateo Bajamich Atlético Tucumán Aktiv 115 / 113 40% 4 25.08.2028 -
Koro Coulibaly Stade Malien Aktiv 126 / 122 40% 1 23.08.2028 -
Manuel Guillén Argentinos Juniors Aktiv 129 / 124 40% 1 23.08.2028 -
Santiago Rodríguez Gimnasia y Esgrima Aktiv 111 / 107 40% 3 22.08.2028 -
Baltasar Rodríguez Estudiantes Aktiv 125 / 130 40% 1 21.08.2028 -
Maizon Rodríguez Unión de Santa Fe Aktiv 122 / 130 40% 1 20.08.2028 -
Cedric Gondo Lazio Aktiv 129 / 120 40% 1 18.08.2028 -
Baldovino Cimino Cosenza Abgelehnt 131 / 122 40% 7 17.08.2028 Ablehnen
Achraf el Bouchataoui Pro Vercelli Aktiv 117 / 116 40% 3 17.08.2028 -
Federico Zuccon Foggia Aktiv 122 / 138 40% 1 17.08.2028 -
Alejandro Molina Tristán Suárez Aktiv 111 / 118 40% 1 16.08.2028 -
Imanol González Gimnasia y Esgrima Aktiv 116 / 125 40% 1 16.08.2028 -
Tobías Leiva Estudiantes Aktiv 119 / 113 40% 1 16.08.2028 -
Ulises Sánchez Gimnasia y Esgrima Aktiv 121 / 131 40% 2 14.08.2028 -
Andrea Zaccagno Torres Aktiv 112 / 128 40% 2 12.08.2028 -
Davide Buglio Crotone Aktiv 123 / 136 40% 6 11.08.2028 -
Kaleb Jimenez Catania Aktiv 116 / 123 40% 1 11.08.2028 -
Joaquín Blázquez Talleres Aktiv 122 / 129 40% 1 10.08.2028 -
Juan Pablo Noce All Boys Aktiv 104 / 118 40% 1 10.08.2028 -
William Rovida Pro Patria Aktiv 115 / 108 40% 2 09.08.2028 -
Kartal Kayra Yılmaz Besiktas Aktiv 135 / 136 40% 3 09.08.2028 -
Pietro Fusi Padova Aktiv 121 / 120 40% 2 09.08.2028 -
Casper De Norre Millwall Aktiv 135 / 119 40% 1 09.08.2028 -
Victor De Lucia Casertana Aktiv 109 / 118 40% 1 09.08.2028 -
Paudie O'Connor Reading Aktiv 119 / 124 40% 1 09.08.2028 -
Raul Talarico Vicenza Aktiv 111 / 110 40% 1 09.08.2028 -
Christian Kouan Benevento Aktiv 126 / 120 40% 6 08.08.2028 -
Filip Lissah Shrewsbury Town Aktiv 111 / 123 40% 2 08.08.2028 -
Fin Back Wycombe Wanderers Aktiv 116 / 126 40% 3 08.08.2028 -
Jort van der Sande Bali United Abgelehnt 101 / 104 72% 1 07.08.2028 -
Samuele Perisan Reggiana Aktiv 122 / 117 40% 4 06.08.2028 -
Olawale Farayola Alashkert Aktiv 136 / 132 40% 4 06.08.2028 -
Nikolai Rehnen Grimsby Town Aktiv 109 / 111 40% 2 06.08.2028 -
Pol Valentín Cambridge United Aktiv 117 / 131 40% 2 06.08.2028 -
Franco Watson Lanús Aktiv 127 / 119 40% 1 06.08.2028 -
Ryan Wintle Milton Keynes Dons Aktiv 125 / 134 40% 4 05.08.2028 -
Filippo Oliana Audace Cerignola Aktiv 129 / 117 40% 3 05.08.2028 -
Andrea Meroni Mantova Aktiv 129 / 135 40% 2 05.08.2028 -
Andrea Franzoni Virtus Entella Aktiv 119 / 115 40% 1 05.08.2028 -
Brais Martínez Burgos Aktiv 126 / 108 40% 1 05.08.2028 -
Maxime Leverbe Vicenza Aktiv 132 / 112 40% 2 04.08.2028 -
Reeve Frosler Bidvest Wits Aktiv 118 / 114 40% 1 04.08.2028 -
Bashar Resan Pakhtakor Aktiv 112 / 123 40% 1 04.08.2028 -
Pedro Souto Temperley Aktiv 107 / 112 40% 1 04.08.2028 -
Alex Bass Peterborough United Aktiv 128 / 126 40% 2 03.08.2028 -
Matías Ramírez Godoy Cruz Aktiv 112 / 115 40% 1 03.08.2028 -
Gianluca Saro Foggia Aktiv 130 / 135 40% 1 03.08.2028 -
Patricio Moyano Defensores Aktiv 126 / 113 40% 6 02.08.2028 -
Antonio Metlika Lecco Aktiv 123 / 120 40% 2 02.08.2028 -
Carlos Benavídez Alavés Aktiv 142 / 122 40% 1 02.08.2028 -
Ichem Ferrah Livorno Aktiv 119 / 120 40% 1 02.08.2028 -
Zé Carlos Gil Vicente Aktiv 124 / 122 40% 2 01.08.2028 -
Rayco Persita Abgelehnt 103 / 106 72% 1 31.07.2028 -
Gavin Kilkenny Swindon Town Aktiv 110 / 119 40% 1 31.07.2028 -
Daniel Phillips Bromley Aktiv 117 / 119 40% 3 30.07.2028 -
Marco Pagliari Ternana Aktiv 114 / 129 40% 2 30.07.2028 -
Jacobo Oviedo Aktiv 135 / 124 40% 1 30.07.2028 -
Fedor Chalov PAOK Aktiv 131 / 141 40% 1 30.07.2028 -
Marc Baró Leiria Aktiv 119 / 126 40% 2 28.07.2028 -
Finley Burns Wigan Athletic Aktiv 121 / 115 40% 1 28.07.2028 -
Jon Toral Persik Aktiv 121 / 121 50% 2 / 1m 26.07.2028 -
Matteo Raffaelli Ascoli Aktiv 120 / 130 40% 3 26.07.2028 -
Andrea Cagnano Arezzo Aktiv 124 / 122 40% 3 26.07.2028 -
Renato Sanches Leiria Aktiv 141 / 134 40% 2 26.07.2028 -
Bailey Peacock-Farrell Blackpool Aktiv 112 / 113 40% 1 26.07.2028 -
Jorginho Kairat Aktiv 124 / 117 40% 4 24.07.2028 -
Ilias Bronkhorst Huddersfield Town Aktiv 129 / 113 40% 8 24.07.2028 -
Paolo Ghiglione Salernitana Aktiv 125 / 115 40% 4 24.07.2028 -
Riccardo Ladinetti Pontedera Aktiv 110 / 124 40% 1 24.07.2028 -
Filippo Melegoni Gubbio Aktiv 123 / 131 40% 3 23.07.2028 -
Maksym Braharu Polissia Aktiv 127 / 138 40% 1 23.07.2028 -
Riccardo Gagno Vicenza Aktiv 121 / 128 40% 4 22.07.2028 -
Elías Torres Racing Club Aktiv 121 / 120 40% 1 22.07.2028 -
Jordan Storey Crewe Alexandra Aktiv 134 / 129 40% 1 21.07.2028 -
Yeison Suárez Deportivo Pereira Aktiv 124 / 105 40% 1 20.07.2028 -
Nicola Mosti Catanzaro Aktiv 115 / 126 40% 2 18.07.2028 -
Nicolas Previtali Giana Erminio Aktiv 114 / 110 40% 2 18.07.2028 -
Rúben Rodrigues Bolton Wanderers Aktiv 129 / 121 40% 2 17.07.2028 -
Agustín Palavecino Estudiantes Aktiv 128 / 109 40% 1 17.07.2028 -
Myles Roberts Cambridge United Aktiv 120 / 112 40% 1 17.07.2028 -
Federico Losas Chacarita Juniors Aktiv 119 / 117 40% 1 17.07.2028 -
Antonino Viola Catania Aktiv 115 / 111 40% 2 16.07.2028 -
Pol Tristán Zaragoza Aktiv 135 / 129 40% 1 16.07.2028 -
Lucas Fernandes Bolton Wanderers Aktiv 128 / 124 40% 4 15.07.2028 -
Stephen McMullan Fleetwood Town Aktiv 104 / 112 40% 3 15.07.2028 -
Manuel Cicconi Sampdoria Aktiv 131 / 115 40% 3 14.07.2028 -
Doğukan Sinik Antalyaspor Aktiv 111 / 114 40% 2 14.07.2028 -
Bogdan Ovsyannikov Orenburg Aktiv 120 / 116 40% 3 13.07.2028 -
Thomas Vettorel Siracusa Aktiv 100 / 104 40% 2 13.07.2028 -
Davide Barosi Campobasso Aktiv 112 / 110 40% 1 13.07.2028 -
Ignacio Saavedra Sochi Aktiv 131 / 123 40% 3 12.07.2028 -
Tomás Pozzo Godoy Cruz Aktiv 128 / 123 40% 2 12.07.2028 -
Giacomo Calò Cesena Aktiv 123 / 129 40% 2 11.07.2028 -
Gennaro Tutino Sampdoria Aktiv 137 / 128 40% 8 10.07.2028 -
Iker Pozo Rodina Aktiv 119 / 133 40% 4 09.07.2028 -
Rustam Yatimov Rostov Aktiv 122 / 127 40% 2 09.07.2028 -
Denis Makarov Krylya Sovetov Aktiv 118 / 126 40% 2 09.07.2028 -
Alessandro Di Pardo Sampdoria Aktiv 115 / 123 40% 1 09.07.2028 -
Tatsuki Seko Stoke City Aktiv 123 / 112 40% 1 09.07.2028 -
Igor Obukhov Fakel Aktiv 116 / 99 40% 1 09.07.2028 -
Lorenzo Carissoni Padova Aktiv 132 / 132 40% 3 06.07.2028 -
Diego Rosa APOEL Aktiv 122 / 137 40% 1 06.07.2028 -
Alexandr Kovalenko Sochi Aktiv 127 / 126 40% 2 04.07.2028 -
Maxime Sivis Orenburg Aktiv 129 / 119 40% 5 03.07.2028 -
Thomas Sandon Vicenza Aktiv 113 / 132 40% 2 02.07.2028 -
Daniel Barrea Godoy Cruz Aktiv 131 / 115 40% 15 01.07.2028 -
Cristian Santander Barranquilla Aktiv 125 / 127 40% 1 01.07.2028 -
Alex Palmer Ipswich Town Aktiv 138 / 123 40% 1 01.07.2028 -
Corey Addai Barnsley Aktiv 116 / 107 40% 4 30.06.2028 -
Luca Villa Salernitana Aktiv 108 / 111 40% 1 29.06.2028 -
Marco Imperiale Catanzaro Aktiv 120 / 129 40% 1 28.06.2028 -
Francesco D'Alterio Ternana Aktiv 125 / 111 40% 3 27.06.2028 -
Kevin Chacón Alianza Petrolera Aktiv 111 / 119 40% 1 27.06.2028 -
Yhormar Hurtado Lechia Aktiv 118 / 119 40% 1 25.06.2028 -
Gianmarco Vannucchi Benevento Aktiv 115 / 129 40% 1 25.06.2028 -
Alfie Whiteman Newport County Aktiv 123 / 122 40% 5 24.06.2028 -
Evgeny Latyshonok Nizhniy Novgorod Aktiv 126 / 122 40% 1 24.06.2028 -
Edwuin Cetré Estudiantes Aktiv 135 / 126 40% 1 23.06.2028 -
Konstantin Kuchaev Rostov Aktiv 119 / 125 40% 1 23.06.2028 -
Cesare Galeotti Trapani Aktiv 123 / 119 40% 1 21.06.2028 -
Andrea Sergio Mazza Giana Erminio Aktiv 104 / 109 40% 1 21.06.2028 -
Alan Sosa Tigre Aktiv 115 / 127 40% 1 21.06.2028 -
Nathan Bishop AFC Wimbledon Aktiv 114 / 110 40% 1 19.06.2028 -
Matteo Sorzi Carpi Aktiv 116 / 101 40% 2 18.06.2028 -
Davide Mastrantonio Latina Aktiv 101 / 111 40% 1 18.06.2028 -
Jack Taylor Doncaster Rovers Aktiv 132 / 124 40% 1 18.06.2028 -
Massimo Bertagnoli Reggiana Aktiv 112 / 130 40% 2 17.06.2028 -
Gabriele Baldi Guidonia Montecelio Aktiv 112 / 124 40% 2 16.06.2028 -
Mauro Rodrigues Botev Plovdiv Aktiv 116 / 113 40% 1 16.06.2028 -
Paulo Vitor Akron Aktiv 124 / 115 40% 5 15.06.2028 -
Niccolò Chiorra Casarano Aktiv 104 / 111 40% 3 15.06.2028 -
Tomás O'Connor Gimnasia y Esgrima Aktiv 130 / 116 40% 2 15.06.2028 -
Evgeny Staver Rubin Aktiv 113 / 127 40% 1 15.06.2028 -
Davide Di Molfetta Union Brescia Aktiv 120 / 127 40% 2 14.06.2028 -
Emiliano Pattarello Arezzo Aktiv 119 / 108 40% 1 14.06.2028 -
Gastón González Defensa y Justicia Aktiv 114 / 116 40% 2 13.06.2028 -
Husain Norchayev Navbahor Aktiv 118 / 111 40% 2 12.06.2028 -
Gianmarco Cangiano Pescara Aktiv 129 / 123 40% 2 10.06.2028 -
Zelimkhan Bakaev Lokomotiv Moscow Aktiv 114 / 118 40% 1 08.06.2028 -
Kike Pérez Venezia Aktiv 129 / 122 40% 1 04.06.2028 -
Tommaso Nobile Renate Aktiv 109 / 104 40% 1 04.06.2028 -
Ilja Zhbanov Cobresal Abgelehnt 90 / 94 93% 1 01.06.2028 -
Gilson Benchimol Baltika Aktiv 126 / 122 40% 2 29.05.2028 -
Chinedu Geoffrey Krylya Sovetov Aktiv 118 / 112 40% 6 29.05.2028 -
Eric Ramírez Unión de Santa Fe Aktiv 116 / 115 40% 2 28.05.2028 -
Álex Arce Independiente Rivadavia Aktiv 127 / 126 40% 3 28.05.2028 -
Ryan Hardie Wrexham Aktiv 111 / 114 40% 2 26.05.2028 -
Nahuel Bustos Talleres Aktiv 134 / 130 40% 2 24.05.2028 -
Umeh Emmanuel Zurich Aktiv 121 / 118 40% 4 23.05.2028 -
Marcelo Torres Gimnasia La Plata Aktiv 119 / 119 40% 3 22.05.2028 -
Randy Nteka Krasnodar Aktiv 130 / 118 40% 9 21.05.2028 -
Will Mannion Charlton Athletic Aktiv 119 / 128 40% 3 19.05.2028 -
Alejandro Rodríguez Melgar Aktiv 134 / 125 40% 1 19.05.2028 -
Anton Mitryushkin Lokomotiv Moscow Aktiv 123 / 132 40% 3 18.05.2028 -
Evan Kurniawan Persita Aktiv 85 / 90 42% 1 / 1m 17.05.2028 -
Mohamed Konaté Akhmat Grozny Aktiv 121 / 124 40% 10 16.05.2028 -
Lucas Ríos Koper Aktiv 111 / 104 40% 1 16.05.2028 -
Remco Balk Twente Aktiv 116 / 110 40% 5 15.05.2028 -
Ettore Gliozzi Mantova Aktiv 122 / 116 40% 6 13.05.2028 -
Nicolás Cordero Aldosivi Aktiv 124 / 124 40% 1 11.05.2028 -
Flavio Junior Bianchi Bari Aktiv 118 / 123 40% 4 08.05.2028 -
Rafael Santos Borré River Plate Aktiv 125 / 117 40% 2 08.05.2028 -
Renaldo Cephas Gabala Aktiv 115 / 107 40% 1 08.05.2028 -
Luca Vido Union Brescia Aktiv 106 / 103 40% 8 07.05.2028 -
Esteban Obregón Montevideo City Torque Aktiv 128 / 113 40% 2 05.05.2028 -
Lamine Guèye Exeter City Aktiv 126 / 122 40% 2 04.05.2028 -
Stefano Filigheddu Monopoli Aktiv 121 / 120 40% 3 01.05.2028 -
Jonás Acevedo Instituto Aktiv 124 / 129 40% 5 01.05.2028 -
Antony Alonso Deportivo Riestra Aktiv 126 / 119 40% 2 01.05.2028 -
Nikolay Komlichenko Lokomotiv Moscow Aktiv 122 / 132 40% 6 27.04.2028 -
Luca Gemello Perugia Aktiv 114 / 105 40% 3 27.04.2028 -
Adolfo Gaich Estudiantes Aktiv 118 / 128 40% 3 27.04.2028 -
Jack Walton Preston Aktiv 131 / 117 40% 1 27.04.2028 -
Sam Proctor Salford City Aktiv 125 / 118 40% 1 27.04.2028 -
Miguel Pereira Persebaya Abgelehnt 115 / 118 40% 1 25.04.2028 -
Francesco Ruocco Mantova Aktiv 119 / 127 40% 1 25.04.2028 -
Jean Butez Frosinone Aktiv 148 / 151 40% 1 24.04.2028 -
Kristjan Matošević Triestina Aktiv 119 / 111 40% 1 24.04.2028 -
Santiago Sala Güemes Aktiv 123 / 105 40% 1 22.04.2028 -
Jacob Brown Barrow AFC Aktiv 119 / 111 40% 2 18.04.2028 -
Jhon Murillo Jaguares Aktiv 122 / 127 40% 2 18.04.2028 -
Alberto Cerri Cesena Aktiv 111 / 110 40% 5 17.04.2028 -
Giuseppe Panico Foggia Aktiv 129 / 107 40% 2 15.04.2028 -
Matías Godoy Estudiantes Aktiv 114 / 122 40% 1 13.04.2028 -
Idrissa Guèye Virtus Entella Aktiv 122 / 130 40% 4 11.04.2028 -
Luca Pandolfi Avellino Aktiv 108 / 113 40% 1 10.04.2028 -
Tomás Fernández Aldosivi Aktiv 109 / 108 40% 1 10.04.2028 -
Martin Zlomislić Qarabag Aktiv 111 / 111 40% 1 09.04.2028 -
Gaspar Duarte Rosario Central Aktiv 118 / 121 40% 4 06.04.2028 -
Fabrizio Sartori Independiente Rivadavia Aktiv 110 / 122 40% 1 04.04.2028 -
Valerio Boffelli Cavese Aktiv 116 / 124 40% 1 04.04.2028 -
Lucas Román Independiente Aktiv 121 / 115 40% 2 31.03.2028 -
Favio Cabral Mitre Aktiv 124 / 123 40% 1 31.03.2028 -
Gaëtan Coucke Sampdoria Aktiv 136 / 136 40% 2 30.03.2028 -
Luke McGee Tranmere Rovers Aktiv 109 / 115 40% 1 30.03.2028 -
Vyacheslav Grulev Nizhniy Novgorod Aktiv 119 / 115 40% 8 28.03.2028 -
Luciano Herrera Newell's Old Boys Aktiv 120 / 125 40% 2 26.03.2028 -
Jaime Báez Trapani Aktiv 123 / 118 40% 6 25.03.2028 -
Ivan Lomaev Ufa Aktiv 122 / 115 40% 2 25.03.2028 -
Cade Cowell Guadalajara Aktiv 124 / 115 40% 2 21.03.2028 -
Ignacio Pussetto Independiente Aktiv 120 / 122 40% 1 21.03.2028 -
Luca Maniero Cittadella Aktiv 99 / 100 40% 1 21.03.2028 -
Ronaldo Martínez Talleres Aktiv 119 / 119 40% 4 19.03.2028 -
George Evans Exeter City Aktiv 107 / 126 40% 1 15.03.2028 -
Ivan Sergeev Dinamo Moscow Aktiv 128 / 121 40% 13 11.03.2028 -
Yoshan Valois Lanús Aktiv 110 / 134 40% 1 11.03.2028 -
Gustavo Del Prete San Lorenzo Aktiv 117 / 111 40% 1 10.03.2028 -
Andrea Petagna Pisa Aktiv 121 / 124 40% 7 09.03.2028 -
Matías Cóccaro Newell's Old Boys Aktiv 119 / 114 40% 1 09.03.2028 -
Luke Southwood Bristol Rovers Aktiv 110 / 106 40% 1 08.03.2028 -
Diego Valencia Astana Aktiv 109 / 112 40% 3 01.03.2028 -
Liam Cullen Swansea City Aktiv 129 / 132 40% 1 29.02.2028 -
Dardan Shabanhaxhaj Rubin Aktiv 125 / 118 40% 1 27.02.2028 -
Adam Buksa Udinese Aktiv 138 / 141 40% 2 25.02.2028 -
Gabriele Gori Ascoli Aktiv 115 / 124 40% 1 25.02.2028 -
Leonardo Marson Gubbio Aktiv 122 / 112 40% 1 24.02.2028 -
Daniele Sommariva Gillingham Aktiv 106 / 113 40% 1 24.02.2028 -
Emanuele Schimmenti Potenza Aktiv 107 / 107 40% 1 24.02.2028 -
Maksim Samorodov Akhmat Grozny Aktiv 132 / 114 40% 1 24.02.2028 -
Albion Rrahmani Venezia Aktiv 139 / 133 40% 1 23.02.2028 -
Filippo Manfrin Arzignano Aktiv 119 / 121 40% 1 19.02.2028 -
Botirali Ergashev Neftchi Aktiv 102 / 102 40% 1 12.02.2028 -
Ilja Pomazun Spartak Moscow Aktiv 123 / 134 40% 1 10.02.2028 -
Petr Kosarevskiy Sibir Aktiv 107 / 119 40% 1 08.02.2028 -
Léo Natel Ordabasy Aktiv 119 / 115 40% 2 06.02.2028 -
Nicola Rauti Vicenza Aktiv 125 / 116 40% 1 03.02.2028 -
El Mehdi Maouhoub Akhmat Grozny Aktiv 124 / 117 40% 5 02.02.2028 -
Keita Baldé Monza Aktiv 113 / 112 40% 1 02.02.2028 -
Sergio Castel Persik Aktiv 112 / 122 40% 18 30.01.2028 -
Marc Gual Kairat Aktiv 109 / 120 40% 1 29.01.2028 -
Flamarion Pakhtakor Aktiv 109 / 113 40% 1 28.01.2028 -
Georgy Melkadze Akhmat Grozny Aktiv 108 / 113 40% 1 24.01.2028 -
Lyndon Dykes Millwall Aktiv 110 / 130 40% 1 17.01.2028 -
Facundo Lescano Salernitana Aktiv 109 / 118 40% 5 09.01.2028 -
David Vasco da Gama Aktiv 119 / 119 40% 1 30.12.2027 -
Enzo Silcan Almagro Aktiv 106 / 105 40% 1 26.12.2027 -
Mathías de Ritis San Lorenzo Aktiv 126 / 124 40% 1 26.12.2027 -
Milan Ristovski Bhayangkara Presisi Aktiv 110 / 100 40% 2 23.12.2027 -
Khetag Khosonov Akron Aktiv 121 / 127 40% 1 23.12.2027 -
Marvin Çuni Rubin Aktiv 117 / 119 40% 5 19.12.2027 -
Derik Lacerda Kawasaki Frontale Aktiv 113 / 136 40% 1 17.12.2027 -
Guglielmo Mignani Benevento Aktiv 120 / 127 40% 2 14.12.2027 -
Roman Yezhov Sochi Aktiv 107 / 120 40% 4 13.12.2027 -
Mohammad Javad Hosseinnejad Dinamo Makhachkala Aktiv 122 / 117 40% 3 13.12.2027 -
Luca Băsceanu Universitatea Craiova Aktiv 119 / 120 40% 1 11.12.2027 -
Guillaume Furrer Lecco Aktiv 105 / 102 40% 1 11.12.2027 -
Luigi Cuppone Virtus Entella Aktiv 113 / 126 40% 3 10.12.2027 -
Pietro Cianci Arezzo Aktiv 117 / 110 40% 2 10.12.2027 -
Michael Liguori Catania Aktiv 115 / 111 40% 1 10.12.2027 -
Dmitry Skopintsev Dinamo Moscow Aktiv 114 / 122 40% 1 10.12.2027 -
Temirkan Sundukov Dinamo Makhachkala Aktiv 124 / 121 40% 1 09.12.2027 -
Roman Vantukh Metalist Aktiv 126 / 110 40% 1 08.12.2027 -
Tomasz Wójtowicz Lechia Aktiv 104 / 118 40% 1 08.12.2027 -
Juan Sebastián Herrera Deportivo La Guaira Aktiv 108 / 100 40% 1 05.12.2027 -
Francesco Salvemini Padova Aktiv 121 / 123 40% 4 04.12.2027 -
Andrés Alarcón Dinamo Makhachkala Aktiv 118 / 113 40% 1 04.12.2027 -
Ousseynou Seck Randers Aktiv 105 / 111 40% 11 02.12.2027 -
Arturo Calabresi Crotone Aktiv 125 / 117 40% 1 30.11.2027 -
Bernard Nguene Standard Liege Aktiv 104 / 115 40% 2 27.11.2027 -
Matija Popović Fakel Aktiv 108 / 120 40% 1 26.11.2027 -
François Kamano Sochi Aktiv 113 / 113 40% 7 22.11.2027 -
Matías Arias Vélez Aktiv 113 / 114 40% 2 22.11.2027 -
Miroslav Bogosavac Akhmat Grozny Aktiv 116 / 108 40% 2 20.11.2027 -
Alejo Montero Newell's Old Boys Aktiv 123 / 124 40% 1 19.11.2027 -
Martin Kramarič Krylya Sovetov Aktiv 119 / 127 40% 1 18.11.2027 -
Alessandro Capelli Padova Aktiv 110 / 113 40% 1 17.11.2027 -
Mauricio Vera Bhayangkara Presisi Aktiv 127 / 114 40% 2 16.11.2027 -
Mauricio Cardillo San Lorenzo Aktiv 122 / 128 40% 2 15.11.2027 -
Ruslan Bezrukov Rubin Aktiv 109 / 128 40% 1 13.11.2027 -
Santiago Martínez Godoy Cruz Aktiv 109 / 127 40% 3 03.11.2027 -
Joel Medina Independiente Aktiv 109 / 116 40% 2 03.11.2027 -
Mateo Pérez Curci Independiente Aktiv 125 / 111 40% 1 31.10.2027 -
Fahd Moufi Baltika Aktiv 121 / 106 40% 7 30.10.2027 -
Nahuel Arias San Lorenzo Aktiv 121 / 119 40% 1 30.10.2027 -
Matias Siltanen Malmo FF Aktiv 134 / 126 40% 1 30.10.2027 -
Tomás Belmonte Boca Juniors Aktiv 131 / 129 40% 3 28.10.2027 -
Théo Le Normand Andorra Aktiv 114 / 110 40% 1 28.10.2027 -
Chinonso Offor Baltika Aktiv 103 / 113 40% 3 26.10.2027 -
Gabriele Moncini Bari Aktiv 103 / 113 40% 1 25.10.2027 -
Cyle Larin Mallorca Aktiv 119 / 135 40% 5 24.10.2027 -
Antonio Di Nardo Juve Stabia Aktiv 124 / 119 40% 1 22.10.2027 -
Vladislav Sarveli Nizhniy Novgorod Aktiv 103 / 110 40% 3 20.10.2027 -
Nikita Kakkoev Nizhniy Novgorod Aktiv 124 / 117 40% 1 17.10.2027 -
Baton Zabërgja Kryvbas Aktiv 111 / 108 40% 1 14.10.2027 -
Nicolas Verkooijen PSV Aktiv 119 / 113 40% 4 12.10.2027 -
Luis Chávez Dinamo Moscow Aktiv 122 / 141 40% 2 12.10.2027 -
Rodrigo Guth Talleres Aktiv 119 / 129 40% 1 12.10.2027 -
Wesley Pomba Rukh Aktiv 125 / 113 40% 3 11.10.2027 -
Damienus Reverson Zurich Aktiv 106 / 123 40% 1 10.10.2027 -
Adrian Skogmar Malmo FF Aktiv 123 / 119 40% 2 08.10.2027 -
Eldar Ćivić Baltika Aktiv 116 / 133 40% 1 04.10.2027 -
Yegor Kortsov Dinamo Brest Aktiv 115 / 117 40% 1 27.09.2027 -
Armando Méndez Newell's Old Boys Aktiv 114 / 119 40% 1 23.09.2027 -
Marcelo Weigandt Boca Juniors Aktiv 111 / 130 40% 2 21.09.2027 -
Gamid Agalarov Orenburg Aktiv 105 / 104 40% 3 21.09.2027 -
Leonard Costa Independiente Rivadavia Aktiv 110 / 126 40% 2 20.09.2027 -
Marcelo Alves SKA Khabarovsk Aktiv 104 / 119 40% 1 18.09.2027 -
Alan Forneris Racing Club Aktiv 112 / 120 40% 1 14.09.2027 -
Kolbeinn Þórðarson IFK Goteborg Aktiv 105 / 117 40% 1 13.09.2027 -
Leonel Pollacchi San Telmo Aktiv 110 / 119 40% 1 08.09.2027 -
Cristian Núñez Huracán Aktiv 105 / 111 40% 1 07.09.2027 -
Martin Sekulić Ural Aktiv 106 / 116 40% 2 29.08.2027 -
Mikkel Ceïde Bodo/Glimt Aktiv 125 / 119 40% 1 27.08.2027 -
Taiki Watanabe Kashima Antlers Aktiv 118 / 114 40% 1 27.08.2027 -
Njabulo Blom Pakhtakor Aktiv 124 / 114 40% 2 23.08.2027 -
Danilo Santacruz Madura United Aktiv 108 / 99 40% 3 18.08.2027 -
Jefferson Persebaya Aktiv 108 / 100 40% 1 18.08.2027 -
Matías Ocampo Persebaya Aktiv 100 / 112 40% 1 18.08.2027 -
Matías Sepúlveda Lanús Aktiv 122 / 113 40% 1 15.08.2027 -
Francisco Rivera Persebaya Aktiv 118 / 105 40% 4 12.08.2027 -
Aaron Spetale Defensa y Justicia Aktiv 118 / 111 40% 1 09.08.2027 -
Miguel Figueiredo Benfica Aktiv 101 / 127 40% 2 05.08.2027 -
Bruno Cabrera Lanús Aktiv 103 / 119 40% 2 01.08.2027 -
André Luís Mirassol Aktiv 125 / 118 40% 1 31.07.2027 -
Joaquín Almería Aktiv 113 / 112 40% 3 30.07.2027 -
Igor Inocêncio Maluku Utara United Aktiv 107 / 120 40% 2 28.07.2027 -
Carlos Eduardo Mirassol Aktiv 111 / 124 40% 3 28.07.2027 -
Lazar Romanic Kashima Antlers Aktiv 108 / 113 40% 1 28.07.2027 -
Kostas Galanopoulos Panathinaikos Aktiv 128 / 133 40% 1 26.07.2027 -
Egy Maulana Vikri Dewa United Aktiv 113 / 104 40% 2 21.07.2027 -
Gustavo Silva Grêmio Aktiv 122 / 130 40% 1 19.07.2027 -
Naoufel Zerhouni Maccabi Tel Aviv Aktiv 109 / 117 40% 1 18.07.2027 -
Antonio Casas Venezia Aktiv 124 / 121 40% 1 08.07.2027 -
Vyacheslav Yakimov Fakel Aktiv 105 / 122 40% 2 04.07.2027 -
Gleb Shevchenko Torpedo Moscow Aktiv 98 / 109 40% 2 02.07.2027 -
Macaulay Langstaff Millwall Aktiv 105 / 117 40% 1 26.06.2027 -
Timothé Nkada Standard Liege Aktiv 111 / 113 40% 1 25.06.2027 -
Vyacheslav Litvinov Sochi Aktiv 117 / 107 40% 2 24.06.2027 -
Victor Hernandez Santa Fe Aktiv 121 / 134 40% 5 24.06.2027 -
Pêpê Pafos Aktiv 109 / 121 40% 1 21.06.2027 -
Thom Haye Persib Aktiv 117 / 120 40% 2 19.06.2027 -
Sergio Rodelas Granada Aktiv 117 / 106 40% 1 19.06.2027 -
Mingiyan Beveev Baltika Aktiv 108 / 107 40% 2 15.06.2027 -
Dmitry Vasiljev Orenburg Aktiv 107 / 116 40% 6 14.06.2027 -
Cyriel Dessers Panathinaikos Aktiv 120 / 121 40% 1 14.06.2027 -
Marcos Astina Borneo Aktiv 121 / 121 40% 1 14.06.2027 -
Bojan Roganović Torpedo Moscow Aktiv 106 / 108 40% 1 31.05.2027 -
Mimeirhel Benita Heracles Aktiv 123 / 119 40% 1 29.05.2027 -
Francisco Perruzzi Aldosivi Aktiv 104 / 95 40% 1 29.05.2027 -
Leo Goglichidze Rodina Aktiv 125 / 115 40% 4 27.05.2027 -
Martim Cunha Porto Aktiv 95 / 118 40% 3 24.05.2027 -
Đorđe Pantelić Spartak Kostroma Aktiv 109 / 115 40% 2 22.05.2027 -
Carles Soria Málaga Aktiv 109 / 125 40% 1 20.05.2027 -
Rhys Walters Port Vale Aktiv 92 / 96 40% 1 20.05.2027 -
Jules Kalczynski Nimes Aktiv 96 / 104 40% 1 19.05.2027 -
Finn Inglethorpe Liverpool Aktiv 67 / 87 40% 1 19.05.2027 -
Maxim Mukhin Rostov Aktiv 125 / 104 40% 1 18.05.2027 -
Luka Andrade Montevideo City Torque Aktiv 88 / 101 40% 1 17.05.2027 -
Mohamed Touré Viktoria Plzen Aktiv 97 / 101 40% 1 17.05.2027 -
Manuel Rodríguez Millonarios Aktiv 95 / 90 40% 1 15.05.2027 -
Alexandr Filin Baltika Aktiv 120 / 111 40% 1 13.05.2027 -
Rakhmatsho Rakhmatzoda Persijap Aktiv 92 / 95 30% 1 / 1m 12.05.2027 -
Víctor Guzmán Sporting CP Aktiv 105 / 110 40% 3 09.05.2027 -
Etsgar Cruz Ruch Aktiv 85 / 79 40% 2 09.05.2027 -
Omar Bautista Gerez Central Córdoba SdE Aktiv 99 / 95 40% 1 09.05.2027 -
Ítalo Ural Aktiv 104 / 106 40% 1 05.05.2027 -
Sergey Guzyuk Strogino Aktiv 54 / 63 40% 1 04.05.2027 -
José Mendes Sporting CP Aktiv 65 / 91 40% 1 04.05.2027 -
Riley Owen Stevenage Aktiv 103 / 112 40% 1 02.05.2027 -
Idar Shumakhov Dinamo Makhachkala Aktiv 93 / 106 40% 1 01.05.2027 -
Tobías Rubio Racing Club Aktiv 122 / 124 40% 1 28.04.2027 -
Noah Mokhtari Stade Brestois Aktiv 95 / 89 40% 1 27.04.2027 -
Samuele di Benedetto Twente Aktiv 101 / 117 40% 2 25.04.2027 -
Konstantin Aleksa Austria Wien Aktiv 105 / 110 40% 1 25.04.2027 -
Thanasis Karamanis Atromitos Aktiv 98 / 115 40% 2 24.04.2027 -
Matties Volckaert KAA Gent Aktiv 104 / 107 40% 1 21.04.2027 -
Wessel Kuhn PSV Aktiv 114 / 126 40% 2 19.04.2027 -
Júlio Romão Akhmat Grozny Aktiv 122 / 111 40% 2 19.04.2027 -
Kirill Cheburakov Rostov Aktiv 68 / 84 40% 2 16.04.2027 -
João Tavares Porto Aktiv 71 / 79 40% 2 16.04.2027 -
Nikolay Titkov Baltika Aktiv 101 / 115 40% 1 15.04.2027 -
Mario Ćurić Torpedo Moscow Aktiv 98 / 119 40% 1 13.04.2027 -
David Martín Real Madrid Aktiv 74 / 90 40% 1 11.04.2027 -
Vladislav Malkevich Ural Aktiv 101 / 92 40% 1 09.04.2027 -
Luke Bolton Mansfield Town Aktiv 104 / 105 40% 1 09.04.2027 -
Eduardo Fernandes Benfica Aktiv 108 / 114 40% 2 08.04.2027 -
Dilan Neves Benfica Aktiv 83 / 89 40% 1 02.04.2027 -
Alexandr Goryachkin Strogino Aktiv 75 / 64 40% 1 02.04.2027 -
Artem Makarchuk Sochi Aktiv 122 / 111 40% 1 31.03.2027 -
Matty Warhurst Manchester City Aktiv 94 / 100 40% 1 31.03.2027 -
Kabiru Abdullahi Barau Aktiv 84 / 104 40% 1 31.03.2027 -
Vladimir Khubulov Dinamo Makhachkala Aktiv 97 / 95 40% 1 30.03.2027 -
Thijmen Goppel Bali United Aktiv 115 / 114 40% 1 25.03.2027 -
Danil Stepanov Torpedo Moscow Aktiv 103 / 95 40% 2 24.03.2027 -
Dylan Cabral Arsenal Aktiv 86 / 95 40% 1 24.03.2027 -
Pedro Lima Sporting CP Aktiv 106 / 116 40% 1 23.03.2027 -
Nahuel Olmedo Crawley Town Aktiv 81 / 75 40% 1 22.03.2027 -
Stanislav Magkeev Fakel Aktiv 114 / 116 40% 2 18.03.2027 -
Josen Escobar Patriotas Aktiv 116 / 127 40% 1 18.03.2027 -
Kelvin Neijenhuis Feyenoord Aktiv 98 / 115 40% 2 17.03.2027 -
Baris Dursun Trabzonspor Aktiv 58 / 63 40% 1 17.03.2027 -
Ilja Agapov Ufa Aktiv 117 / 112 40% 3 12.03.2027 -
Ceadach O'Neill Arsenal Aktiv 80 / 109 40% 1 09.03.2027 -
Iván Morales Argentinos Juniors Aktiv 105 / 108 40% 1 07.03.2027 -
Joseph Moulin RC Lens Aktiv 61 / 93 40% 1 04.03.2027 -
Ionuţ Nedelcearu Akron Aktiv 106 / 100 40% 1 02.03.2027 -
Saminu Abdullahi KAMAZ Aktiv 91 / 104 40% 1 27.02.2027 -
Garrik Levin Chelyabinsk Aktiv 108 / 104 40% 1 26.02.2027 -
Nazar Makeev Akron Aktiv 65 / 76 40% 1 24.02.2027 -
Stanislav Bukatov Salyut Aktiv 63 / 80 40% 1 24.02.2027 -
Elion Krosa Odd Aktiv 80 / 97 40% 1 23.02.2027 -
Sergey Gaiduk Salyut Aktiv 68 / 68 40% 3 22.02.2027 -
Nazif Inoussa Benfica Aktiv 75 / 82 40% 2 22.02.2027 -
David Kokoev Yenisey Aktiv 93 / 105 40% 2 20.02.2027 -
Ahmed Khaled Paralimni Aktiv 80 / 90 40% 1 20.02.2027 -
Tiago Pucciarelli IF Elfsborg Aktiv 88 / 92 40% 1 20.02.2027 -
Wonderson Yakubu Hapoel Raanana Aktiv 67 / 71 40% 1 17.02.2027 -
Danila Vedernikov Orenburg Aktiv 97 / 109 40% 1 13.02.2027 -
Agustín Mello Metallurg Aktiv 80 / 76 40% 1 04.02.2027 -
Ajay Matthews Millwall Aktiv 109 / 117 40% 1 25.01.2027 -
Alagie Wally Veres Aktiv 90 / 88 40% 1 20.01.2027 -